METAR Data
IDs: Format: Raw Decoded Include TAF

Data at: 0234 UTC 14 Dec 2018

LTAF 140220Z 03005KT 9999 SCT035 07/03 Q1025 NOSIG